sensor_id;sensor_type;location;lat;lon;timestamp;P1;P2;P0
26185;PMS7003;20067;48.764;9.176;2023-04-15T00:00:29;11.50;10.75;5.00
26185;PMS7003;20067;48.764;9.176;2023-04-15T00:02:54;13.25;11.00;6.00
26185;PMS7003;20067;48.764;9.176;2023-04-15T00:05:20;13.50;11.75;5.00
26185;PMS7003;20067;48.764;9.176;2023-04-15T00:07:46;9.25;9.25;5.00
26185;PMS7003;20067;48.764;9.176;2023-04-15T00:10:12;14.75;11.00;6.00
26185;PMS7003;20067;48.764;9.176;2023-04-15T00:12:38;11.50;10.75;6.00
26185;PMS7003;20067;48.764;9.176;2023-04-15T00:15:05;10.75;10.75;6.00
26185;PMS7003;20067;48.764;9.176;2023-04-15T00:17:33;17.50;14.00;6.00
26185;PMS7003;20067;48.764;9.176;2023-04-15T00:19:59;14.00;12.00;6.00
26185;PMS7003;20067;48.764;9.176;2023-04-15T00:22:25;18.00;11.75;6.00
26185;PMS7003;20067;48.764;9.176;2023-04-15T00:24:51;11.00;11.00;5.00
26185;PMS7003;20067;48.764;9.176;2023-04-15T00:27:18;10.25;9.25;4.50
26185;PMS7003;20067;48.764;9.176;2023-04-15T00:29:44;10.75;10.75;4.00
26185;PMS7003;20067;48.764;9.176;2023-04-15T00:32:09;11.25;10.25;4.00
26185;PMS7003;20067;48.764;9.176;2023-04-15T00:34:35;11.75;11.00;6.00
26185;PMS7003;20067;48.764;9.176;2023-04-15T00:37:01;15.75;12.50;6.00
26185;PMS7003;20067;48.764;9.176;2023-04-15T00:39:27;14.25;12.00;6.25
26185;PMS7003;20067;48.764;9.176;2023-04-15T00:41:52;11.75;11.00;6.00
26185;PMS7003;20067;48.764;9.176;2023-04-15T00:44:18;9.00;9.00;4.00
26185;PMS7003;20067;48.764;9.176;2023-04-15T00:46:44;14.75;13.50;8.00
26185;PMS7003;20067;48.764;9.176;2023-04-15T00:49:12;9.50;9.00;4.00
26185;PMS7003;20067;48.764;9.176;2023-04-15T00:51:38;13.75;13.50;7.50
26185;PMS7003;20067;48.764;9.176;2023-04-15T00:54:04;10.00;8.75;4.00
26185;PMS7003;20067;48.764;9.176;2023-04-15T00:56:30;14.00;13.00;8.00
26185;PMS7003;20067;48.764;9.176;2023-04-15T00:59:00;11.00;11.00;6.50
26185;PMS7003;20067;48.764;9.176;2023-04-15T01:01:26;12.50;12.50;6.00
26185;PMS7003;20067;48.764;9.176;2023-04-15T01:03:53;12.00;10.00;5.00
26185;PMS7003;20067;48.764;9.176;2023-04-15T01:06:20;11.75;10.50;4.50
26185;PMS7003;20067;48.764;9.176;2023-04-15T01:08:46;13.75;10.50;4.00
26185;PMS7003;20067;48.764;9.176;2023-04-15T01:11:12;8.00;8.00;3.25
26185;PMS7003;20067;48.764;9.176;2023-04-15T01:13:37;11.00;11.00;4.50
26185;PMS7003;20067;48.764;9.176;2023-04-15T01:16:04;11.75;9.00;5.00
26185;PMS7003;20067;48.764;9.176;2023-04-15T01:18:30;10.25;10.25;3.75
26185;PMS7003;20067;48.764;9.176;2023-04-15T01:20:56;11.00;11.00;4.00
26185;PMS7003;20067;48.764;9.176;2023-04-15T01:23:22;11.00;11.00;6.00
26185;PMS7003;20067;48.764;9.176;2023-04-15T01:25:48;11.25;11.25;4.00
26185;PMS7003;20067;48.764;9.176;2023-04-15T01:28:14;9.00;8.75;4.00
26185;PMS7003;20067;48.764;9.176;2023-04-15T01:30:40;11.00;11.00;4.50
26185;PMS7003;20067;48.764;9.176;2023-04-15T01:33:06;11.75;11.50;4.00
26185;PMS7003;20067;48.764;9.176;2023-04-15T01:35:32;11.25;9.50;5.50
26185;PMS7003;20067;48.764;9.176;2023-04-15T01:38:07;12.00;9.00;4.00
26185;PMS7003;20067;48.764;9.176;2023-04-15T01:40:33;13.50;11.00;5.00
26185;PMS7003;20067;48.764;9.176;2023-04-15T01:43:00;12.75;11.00;5.00
26185;PMS7003;20067;48.764;9.176;2023-04-15T01:45:26;11.00;11.00;5.00
26185;PMS7003;20067;48.764;9.176;2023-04-15T01:47:52;9.00;9.00;3.75
26185;PMS7003;20067;48.764;9.176;2023-04-15T01:50:18;11.00;9.00;4.00
26185;PMS7003;20067;48.764;9.176;2023-04-15T01:52:44;8.25;8.25;3.50
26185;PMS7003;20067;48.764;9.176;2023-04-15T01:55:11;11.00;8.75;3.75
26185;PMS7003;20067;48.764;9.176;2023-04-15T01:57:37;8.75;8.75;3.00
26185;PMS7003;20067;48.764;9.176;2023-04-15T02:00:03;11.00;8.50;4.00
26185;PMS7003;20067;48.764;9.176;2023-04-15T02:02:29;11.00;11.00;3.75
26185;PMS7003;20067;48.764;9.176;2023-04-15T02:04:54;13.75;11.75;6.00
26185;PMS7003;20067;48.764;9.176;2023-04-15T02:07:20;11.25;11.00;5.00
26185;PMS7003;20067;48.764;9.176;2023-04-15T02:09:46;8.50;7.00;3.25
26185;PMS7003;20067;48.764;9.176;2023-04-15T02:12:11;11.00;9.00;4.00
26185;PMS7003;20067;48.764;9.176;2023-04-15T02:14:37;10.00;8.75;4.50
26185;PMS7003;20067;48.764;9.176;2023-04-15T02:17:03;9.00;8.50;3.00
26185;PMS7003;20067;48.764;9.176;2023-04-15T02:19:35;11.00;11.00;5.50
26185;PMS7003;20067;48.764;9.176;2023-04-15T02:22:01;12.50;12.50;5.50
26185;PMS7003;20067;48.764;9.176;2023-04-15T02:24:27;11.00;9.00;4.00
26185;PMS7003;20067;48.764;9.176;2023-04-15T02:26:53;9.50;9.00;4.00
26185;PMS7003;20067;48.764;9.176;2023-04-15T02:29:19;9.50;8.50;3.50
26185;PMS7003;20067;48.764;9.176;2023-04-15T02:31:44;10.50;6.00;3.00
26185;PMS7003;20067;48.764;9.176;2023-04-15T02:34:10;11.25;9.50;4.50
26185;PMS7003;20067;48.764;9.176;2023-04-15T02:36:36;9.50;9.00;4.00
26185;PMS7003;20067;48.764;9.176;2023-04-15T02:39:02;9.00;8.50;4.00
26185;PMS7003;20067;48.764;9.176;2023-04-15T02:41:28;9.50;9.50;3.25
26185;PMS7003;20067;48.764;9.176;2023-04-15T02:43:54;11.00;9.00;4.00
26185;PMS7003;20067;48.764;9.176;2023-04-15T02:46:20;10.00;9.00;4.00
26185;PMS7003;20067;48.764;9.176;2023-04-15T02:48:46;9.00;9.00;4.00
26185;PMS7003;20067;48.764;9.176;2023-04-15T02:51:13;8.75;8.75;4.00
26185;PMS7003;20067;48.764;9.176;2023-04-15T02:53:47;13.00;11.50;4.00
26185;PMS7003;20067;48.764;9.176;2023-04-15T02:56:13;12.00;11.00;4.00
26185;PMS7003;20067;48.764;9.176;2023-04-15T02:58:40;9.00;8.75;4.00
26185;PMS7003;20067;48.764;9.176;2023-04-15T03:01:07;11.00;9.00;4.00
26185;PMS7003;20067;48.764;9.176;2023-04-15T03:03:33;8.75;8.25;4.00
26185;PMS7003;20067;48.764;9.176;2023-04-15T03:05:59;12.75;10.50;4.50
26185;PMS7003;20067;48.764;9.176;2023-04-15T03:08:25;15.00;11.50;6.00
26185;PMS7003;20067;48.764;9.176;2023-04-15T03:10:50;11.50;10.50;4.00
26185;PMS7003;20067;48.764;9.176;2023-04-15T03:13:17;10.50;10.00;3.50
26185;PMS7003;20067;48.764;9.176;2023-04-15T03:15:46;9.00;8.75;4.00
26185;PMS7003;20067;48.764;9.176;2023-04-15T03:18:12;8.00;8.00;3.00
26185;PMS7003;20067;48.764;9.176;2023-04-15T03:20:38;8.25;8.25;3.75
26185;PMS7003;20067;48.764;9.176;2023-04-15T03:23:03;7.00;7.00;3.00
26185;PMS7003;20067;48.764;9.176;2023-04-15T03:25:29;9.25;8.25;2.50
26185;PMS7003;20067;48.764;9.176;2023-04-15T03:27:55;11.00;8.25;4.00
26185;PMS7003;20067;48.764;9.176;2023-04-15T03:30:21;8.50;8.00;3.00
26185;PMS7003;20067;48.764;9.176;2023-04-15T03:32:46;8.75;8.50;3.75
26185;PMS7003;20067;48.764;9.176;2023-04-15T03:35:12;11.00;11.00;5.00
26185;PMS7003;20067;48.764;9.176;2023-04-15T03:37:37;11.00;11.00;5.00
26185;PMS7003;20067;48.764;9.176;2023-04-15T03:40:03;13.00;11.50;6.00
26185;PMS7003;20067;48.764;9.176;2023-04-15T03:42:29;11.00;10.75;5.00
26185;PMS7003;20067;48.764;9.176;2023-04-15T03:44:55;10.75;10.75;5.50
26185;PMS7003;20067;48.764;9.176;2023-04-15T03:47:21;13.50;10.25;3.50
26185;PMS7003;20067;48.764;9.176;2023-04-15T03:49:46;12.00;10.00;5.25
26185;PMS7003;20067;48.764;9.176;2023-04-15T03:52:12;11.00;10.00;5.00
26185;PMS7003;20067;48.764;9.176;2023-04-15T03:54:37;10.00;10.00;5.00
26185;PMS7003;20067;48.764;9.176;2023-04-15T03:57:03;10.75;10.75;3.75
26185;PMS7003;20067;48.764;9.176;2023-04-15T03:59:29;10.00;10.00;3.00
26185;PMS7003;20067;48.764;9.176;2023-04-15T04:01:54;10.50;8.00;3.00
26185;PMS7003;20067;48.764;9.176;2023-04-15T04:04:20;10.50;10.00;4.75
26185;PMS7003;20067;48.764;9.176;2023-04-15T04:06:45;10.50;9.50;4.00
26185;PMS7003;20067;48.764;9.176;2023-04-15T04:09:11;9.00;7.00;3.00
26185;PMS7003;20067;48.764;9.176;2023-04-15T04:11:36;10.00;10.00;3.50
26185;PMS7003;20067;48.764;9.176;2023-04-15T04:14:02;12.00;9.50;3.00
26185;PMS7003;20067;48.764;9.176;2023-04-15T04:16:28;8.00;8.00;3.25
26185;PMS7003;20067;48.764;9.176;2023-04-15T04:18:53;6.00;6.00;3.00
26185;PMS7003;20067;48.764;9.176;2023-04-15T04:21:19;9.75;8.00;3.75
26185;PMS7003;20067;48.764;9.176;2023-04-15T04:23:45;9.00;8.00;3.00
26185;PMS7003;20067;48.764;9.176;2023-04-15T04:26:11;9.75;9.75;3.25
26185;PMS7003;20067;48.764;9.176;2023-04-15T04:28:36;11.50;11.00;4.00
26185;PMS7003;20067;48.764;9.176;2023-04-15T04:31:04;8.00;8.00;3.00
26185;PMS7003;20067;48.764;9.176;2023-04-15T04:33:31;11.25;10.00;4.00
26185;PMS7003;20067;48.764;9.176;2023-04-15T04:35:57;10.50;9.00;3.75
26185;PMS7003;20067;48.764;9.176;2023-04-15T04:38:22;10.75;9.00;4.00
26185;PMS7003;20067;48.764;9.176;2023-04-15T04:40:48;9.50;8.50;4.00
26185;PMS7003;20067;48.764;9.176;2023-04-15T04:43:14;8.00;8.00;3.00
26185;PMS7003;20067;48.764;9.176;2023-04-15T04:45:40;8.00;8.00;3.50
26185;PMS7003;20067;48.764;9.176;2023-04-15T04:48:05;7.00;6.00;3.00
26185;PMS7003;20067;48.764;9.176;2023-04-15T04:50:33;9.25;6.50;3.00
26185;PMS7003;20067;48.764;9.176;2023-04-15T04:52:59;8.00;8.00;4.00
26185;PMS7003;20067;48.764;9.176;2023-04-15T04:55:25;11.00;8.00;3.00
26185;PMS7003;20067;48.764;9.176;2023-04-15T04:57:51;9.00;6.00;1.50
26185;PMS7003;20067;48.764;9.176;2023-04-15T05:00:16;6.50;6.50;3.00
26185;PMS7003;20067;48.764;9.176;2023-04-15T05:02:43;8.00;8.00;3.75
26185;PMS7003;20067;48.764;9.176;2023-04-15T05:05:09;8.50;8.50;3.00
26185;PMS7003;20067;48.764;9.176;2023-04-15T05:07:35;7.00;7.00;3.00
26185;PMS7003;20067;48.764;9.176;2023-04-15T05:10:02;8.00;8.00;3.00
26185;PMS7003;20067;48.764;9.176;2023-04-15T05:12:28;11.75;8.00;3.00
26185;PMS7003;20067;48.764;9.176;2023-04-15T05:14:54;7.00;7.00;2.50
26185;PMS7003;20067;48.764;9.176;2023-04-15T05:17:19;8.00;8.00;2.50
26185;PMS7003;20067;48.764;9.176;2023-04-15T05:19:45;8.00;8.00;3.00
26185;PMS7003;20067;48.764;9.176;2023-04-15T05:22:11;6.50;6.00;1.00
26185;PMS7003;20067;48.764;9.176;2023-04-15T05:24:37;7.50;7.50;1.00
26185;PMS7003;20067;48.764;9.176;2023-04-15T05:27:02;10.75;8.75;3.00
26185;PMS7003;20067;48.764;9.176;2023-04-15T05:29:28;7.00;7.00;3.00
26185;PMS7003;20067;48.764;9.176;2023-04-15T05:31:54;8.50;8.50;3.75
26185;PMS7003;20067;48.764;9.176;2023-04-15T05:34:20;8.25;8.00;3.00
26185;PMS7003;20067;48.764;9.176;2023-04-15T05:36:46;8.75;8.00;3.00
26185;PMS7003;20067;48.764;9.176;2023-04-15T05:39:11;10.00;8.00;3.50
26185;PMS7003;20067;48.764;9.176;2023-04-15T05:41:37;8.00;8.00;3.00
26185;PMS7003;20067;48.764;9.176;2023-04-15T05:44:03;8.50;7.00;3.00
26185;PMS7003;20067;48.764;9.176;2023-04-15T05:46:28;8.00;8.00;3.00
26185;PMS7003;20067;48.764;9.176;2023-04-15T05:48:54;11.00;10.00;3.00
26185;PMS7003;20067;48.764;9.176;2023-04-15T05:51:20;10.00;10.00;4.00
26185;PMS7003;20067;48.764;9.176;2023-04-15T05:53:45;8.25;8.25;3.25
26185;PMS7003;20067;48.764;9.176;2023-04-15T05:56:11;8.00;8.00;3.00
26185;PMS7003;20067;48.764;9.176;2023-04-15T05:58:36;13.00;9.00;4.00
26185;PMS7003;20067;48.764;9.176;2023-04-15T06:01:02;11.50;8.75;3.50
26185;PMS7003;20067;48.764;9.176;2023-04-15T06:03:28;9.00;9.00;4.00
26185;PMS7003;20067;48.764;9.176;2023-04-15T06:05:54;8.75;8.75;4.00
26185;PMS7003;20067;48.764;9.176;2023-04-15T06:08:20;9.50;9.50;3.00
26185;PMS7003;20067;48.764;9.176;2023-04-15T06:10:46;9.75;9.75;5.00
26185;PMS7003;20067;48.764;9.176;2023-04-15T06:13:11;15.25;15.25;6.00
26185;PMS7003;20067;48.764;9.176;2023-04-15T06:15:37;11.00;11.00;4.00
26185;PMS7003;20067;48.764;9.176;2023-04-15T06:18:03;11.50;11.00;5.25
26185;PMS7003;20067;48.764;9.176;2023-04-15T06:20:29;13.25;11.50;6.00
26185;PMS7003;20067;48.764;9.176;2023-04-15T06:22:54;12.50;12.50;6.50
26185;PMS7003;20067;48.764;9.176;2023-04-15T06:25:21;11.25;11.00;4.50
26185;PMS7003;20067;48.764;9.176;2023-04-15T06:27:47;13.25;11.50;5.50
26185;PMS7003;20067;48.764;9.176;2023-04-15T06:30:12;9.50;9.00;4.00
26185;PMS7003;20067;48.764;9.176;2023-04-15T06:32:38;11.75;11.50;6.00
26185;PMS7003;20067;48.764;9.176;2023-04-15T06:35:04;11.00;11.00;4.00
26185;PMS7003;20067;48.764;9.176;2023-04-15T06:37:30;14.00;11.50;4.00
26185;PMS7003;20067;48.764;9.176;2023-04-15T06:39:56;11.50;9.00;4.00
26185;PMS7003;20067;48.764;9.176;2023-04-15T06:42:22;12.50;12.00;5.00
26185;PMS7003;20067;48.764;9.176;2023-04-15T06:44:48;11.25;11.25;4.00
26185;PMS7003;20067;48.764;9.176;2023-04-15T06:47:14;14.75;12.25;5.50
26185;PMS7003;20067;48.764;9.176;2023-04-15T06:49:39;12.75;12.00;4.00
26185;PMS7003;20067;48.764;9.176;2023-04-15T06:52:06;11.00;9.50;4.00
26185;PMS7003;20067;48.764;9.176;2023-04-15T06:54:32;13.00;9.00;4.00
26185;PMS7003;20067;48.764;9.176;2023-04-15T06:56:59;10.50;9.00;3.00
26185;PMS7003;20067;48.764;9.176;2023-04-15T06:59:24;14.00;14.00;7.00
26185;PMS7003;20067;48.764;9.176;2023-04-15T07:01:51;14.25;14.25;7.00
26185;PMS7003;20067;48.764;9.176;2023-04-15T07:04:16;17.00;15.00;7.50
26185;PMS7003;20067;48.764;9.176;2023-04-15T07:06:42;15.00;14.00;7.00
26185;PMS7003;20067;48.764;9.176;2023-04-15T07:09:08;13.25;13.25;7.00
26185;PMS7003;20067;48.764;9.176;2023-04-15T07:11:34;12.75;12.50;7.00
26185;PMS7003;20067;48.764;9.176;2023-04-15T07:14:00;13.25;12.75;7.00
26185;PMS7003;20067;48.764;9.176;2023-04-15T07:16:26;12.50;12.25;6.00
26185;PMS7003;20067;48.764;9.176;2023-04-15T07:18:52;16.00;15.00;9.00
26185;PMS7003;20067;48.764;9.176;2023-04-15T07:21:18;15.00;15.00;9.00
26185;PMS7003;20067;48.764;9.176;2023-04-15T07:23:43;17.25;16.25;10.00
26185;PMS7003;20067;48.764;9.176;2023-04-15T07:26:09;16.50;15.50;8.50
26185;PMS7003;20067;48.764;9.176;2023-04-15T07:28:35;15.50;15.50;9.25
26185;PMS7003;20067;48.764;9.176;2023-04-15T07:31:00;15.75;14.25;9.00
26185;PMS7003;20067;48.764;9.176;2023-04-15T07:33:26;15.00;14.25;7.75
26185;PMS7003;20067;48.764;9.176;2023-04-15T07:35:52;16.00;13.00;7.00
26185;PMS7003;20067;48.764;9.176;2023-04-15T07:38:18;16.75;13.75;8.00
26185;PMS7003;20067;48.764;9.176;2023-04-15T07:40:43;12.00;11.50;7.00
26185;PMS7003;20067;48.764;9.176;2023-04-15T07:43:10;17.25;11.75;7.00
26185;PMS7003;20067;48.764;9.176;2023-04-15T07:45:37;15.00;15.00;8.00
26185;PMS7003;20067;48.764;9.176;2023-04-15T07:48:03;18.00;13.75;8.75
26185;PMS7003;20067;48.764;9.176;2023-04-15T07:50:29;17.50;15.00;9.00
26185;PMS7003;20067;48.764;9.176;2023-04-15T07:52:55;16.00;15.25;8.75
26185;PMS7003;20067;48.764;9.176;2023-04-15T07:55:21;18.00;15.00;8.00
26185;PMS7003;20067;48.764;9.176;2023-04-15T07:57:48;17.25;16.00;8.75
26185;PMS7003;20067;48.764;9.176;2023-04-15T08:00:14;18.00;16.50;9.00
26185;PMS7003;20067;48.764;9.176;2023-04-15T08:02:40;16.25;14.75;8.50
26185;PMS7003;20067;48.764;9.176;2023-04-15T08:05:07;11.75;11.75;7.25
26185;PMS7003;20067;48.764;9.176;2023-04-15T08:07:35;16.75;15.00;8.00
26185;PMS7003;20067;48.764;9.176;2023-04-15T08:10:01;16.00;13.00;7.75
26185;PMS7003;20067;48.764;9.176;2023-04-15T08:12:27;15.75;14.00;8.00
26185;PMS7003;20067;48.764;9.176;2023-04-15T08:14:53;13.00;13.00;8.00
26185;PMS7003;20067;48.764;9.176;2023-04-15T08:17:19;11.25;11.00;5.50
26185;PMS7003;20067;48.764;9.176;2023-04-15T08:19:45;12.25;10.50;5.00
26185;PMS7003;20067;48.764;9.176;2023-04-15T08:22:12;10.25;9.25;3.75
26185;PMS7003;20067;48.764;9.176;2023-04-15T08:24:38;9.50;9.50;5.50
26185;PMS7003;20067;48.764;9.176;2023-04-15T08:27:03;12.75;12.75;7.75
26185;PMS7003;20067;48.764;9.176;2023-04-15T08:29:30;12.25;11.25;5.75
26185;PMS7003;20067;48.764;9.176;2023-04-15T08:31:58;12.75;12.00;6.75
26185;PMS7003;20067;48.764;9.176;2023-04-15T08:34:24;15.00;14.25;7.75
26185;PMS7003;20067;48.764;9.176;2023-04-15T08:36:50;13.75;12.00;7.00
26185;PMS7003;20067;48.764;9.176;2023-04-15T08:39:16;11.25;10.25;5.75
26185;PMS7003;20067;48.764;9.176;2023-04-15T08:41:45;12.00;11.00;6.75
26185;PMS7003;20067;48.764;9.176;2023-04-15T08:44:12;12.00;10.75;6.00
26185;PMS7003;20067;48.764;9.176;2023-04-15T08:46:38;9.00;9.00;6.25
26185;PMS7003;20067;48.764;9.176;2023-04-15T08:49:06;10.50;10.25;6.00
26185;PMS7003;20067;48.764;9.176;2023-04-15T08:51:35;10.00;9.75;4.75
26185;PMS7003;20067;48.764;9.176;2023-04-15T08:54:02;11.25;10.00;5.00
26185;PMS7003;20067;48.764;9.176;2023-04-15T08:56:30;10.25;9.50;5.00
26185;PMS7003;20067;48.764;9.176;2023-04-15T08:58:58;11.00;10.50;5.75
26185;PMS7003;20067;48.764;9.176;2023-04-15T09:01:24;10.25;8.25;5.00
26185;PMS7003;20067;48.764;9.176;2023-04-15T09:03:51;10.50;10.00;5.50
26185;PMS7003;20067;48.764;9.176;2023-04-15T09:06:19;11.75;11.00;6.00
26185;PMS7003;20067;48.764;9.176;2023-04-15T09:08:45;13.25;11.75;6.25
26185;PMS7003;20067;48.764;9.176;2023-04-15T09:11:11;13.00;11.50;5.50
26185;PMS7003;20067;48.764;9.176;2023-04-15T09:13:37;10.25;10.25;6.00
26185;PMS7003;20067;48.764;9.176;2023-04-15T09:16:06;10.00;9.75;6.00
26185;PMS7003;20067;48.764;9.176;2023-04-15T09:18:32;8.25;7.50;3.25
26185;PMS7003;20067;48.764;9.176;2023-04-15T09:21:06;6.25;6.25;3.25
26185;PMS7003;20067;48.764;9.176;2023-04-15T09:23:37;7.75;7.75;5.00
26185;PMS7003;20067;48.764;9.176;2023-04-15T09:26:03;8.00;8.00;4.50
26185;PMS7003;20067;48.764;9.176;2023-04-15T09:28:30;10.00;9.50;4.25
26185;PMS7003;20067;48.764;9.176;2023-04-15T09:30:56;10.00;8.75;5.00
26185;PMS7003;20067;48.764;9.176;2023-04-15T09:33:22;12.00;10.75;5.00
26185;PMS7003;20067;48.764;9.176;2023-04-15T09:36:00;11.00;10.00;4.00
26185;PMS7003;20067;48.764;9.176;2023-04-15T09:38:29;10.00;9.25;4.25
26185;PMS7003;20067;48.764;9.176;2023-04-15T09:40:56;9.00;8.25;4.00
26185;PMS7003;20067;48.764;9.176;2023-04-15T09:43:36;7.25;6.75;3.00
26185;PMS7003;20067;48.764;9.176;2023-04-15T09:46:05;8.00;7.00;3.00
26185;PMS7003;20067;48.764;9.176;2023-04-15T09:48:31;9.50;9.25;5.00
26185;PMS7003;20067;48.764;9.176;2023-04-15T09:50:57;7.25;7.25;3.25
26185;PMS7003;20067;48.764;9.176;2023-04-15T09:53:24;8.25;8.00;3.00
26185;PMS7003;20067;48.764;9.176;2023-04-15T09:55:51;7.75;7.75;3.00
26185;PMS7003;20067;48.764;9.176;2023-04-15T09:58:24;10.25;9.00;3.00
26185;PMS7003;20067;48.764;9.176;2023-04-15T10:00:52;6.75;6.75;2.50
26185;PMS7003;20067;48.764;9.176;2023-04-15T10:03:21;13.25;7.75;3.00
26185;PMS7003;20067;48.764;9.176;2023-04-15T10:05:49;10.00;8.75;3.00
26185;PMS7003;20067;48.764;9.176;2023-04-15T10:08:16;7.00;7.00;2.00
26185;PMS7003;20067;48.764;9.176;2023-04-15T10:10:44;8.50;8.50;2.75
26185;PMS7003;20067;48.764;9.176;2023-04-15T10:13:12;8.00;7.00;2.75
26185;PMS7003;20067;48.764;9.176;2023-04-15T10:15:39;6.00;6.00;2.50
26185;PMS7003;20067;48.764;9.176;2023-04-15T10:18:07;9.00;7.00;2.50
26185;PMS7003;20067;48.764;9.176;2023-04-15T10:20:35;8.50;6.75;3.00
26185;PMS7003;20067;48.764;9.176;2023-04-15T10:23:02;8.50;8.50;4.75
26185;PMS7003;20067;48.764;9.176;2023-04-15T10:25:28;8.25;8.00;2.75
26185;PMS7003;20067;48.764;9.176;2023-04-15T10:27:55;8.50;8.50;4.00
26185;PMS7003;20067;48.764;9.176;2023-04-15T10:30:21;9.50;9.00;4.00
26185;PMS7003;20067;48.764;9.176;2023-04-15T10:32:47;9.25;8.25;4.00
26185;PMS7003;20067;48.764;9.176;2023-04-15T10:35:14;8.00;8.00;4.00
26185;PMS7003;20067;48.764;9.176;2023-04-15T10:37:40;7.25;7.25;4.00
26185;PMS7003;20067;48.764;9.176;2023-04-15T10:40:28;9.00;8.50;4.25
26185;PMS7003;20067;48.764;9.176;2023-04-15T10:42:59;10.75;10.00;5.00
26185;PMS7003;20067;48.764;9.176;2023-04-15T10:45:35;10.00;9.25;4.50
26185;PMS7003;20067;48.764;9.176;2023-04-15T10:48:02;9.00;7.00;3.00
26185;PMS7003;20067;48.764;9.176;2023-04-15T10:50:31;7.00;7.00;3.00
26185;PMS7003;20067;48.764;9.176;2023-04-15T10:52:57;10.00;9.50;5.00
26185;PMS7003;20067;48.764;9.176;2023-04-15T10:55:24;11.00;10.00;5.00
26185;PMS7003;20067;48.764;9.176;2023-04-15T10:57:51;10.75;10.00;5.00
26185;PMS7003;20067;48.764;9.176;2023-04-15T11:00:18;8.50;8.50;3.50
26185;PMS7003;20067;48.764;9.176;2023-04-15T11:02:55;8.50;8.50;5.25
26185;PMS7003;20067;48.764;9.176;2023-04-15T11:05:47;11.25;9.50;5.00
26185;PMS7003;20067;48.764;9.176;2023-04-15T11:08:13;9.25;9.00;5.00
26185;PMS7003;20067;48.764;9.176;2023-04-15T11:16:17;12.00;9.50;4.50
26185;PMS7003;20067;48.764;9.176;2023-04-15T11:18:26;10.75;9.50;4.50
26185;PMS7003;20067;48.764;9.176;2023-04-15T11:20:55;11.00;10.50;6.00
26185;PMS7003;20067;48.764;9.176;2023-04-15T11:26:08;10.00;9.00;5.00
26185;PMS7003;20067;48.764;9.176;2023-04-15T11:28:36;8.75;8.75;4.25
26185;PMS7003;20067;48.764;9.176;2023-04-15T11:31:06;9.25;9.25;3.50
26185;PMS7003;20067;48.764;9.176;2023-04-15T11:33:35;9.00;9.00;5.00
26185;PMS7003;20067;48.764;9.176;2023-04-15T11:36:01;9.00;8.50;3.00
26185;PMS7003;20067;48.764;9.176;2023-04-15T11:38:28;10.00;8.75;3.00
26185;PMS7003;20067;48.764;9.176;2023-04-15T11:40:54;10.00;9.00;5.00
26185;PMS7003;20067;48.764;9.176;2023-04-15T11:43:20;12.75;11.75;5.00
26185;PMS7003;20067;48.764;9.176;2023-04-15T11:45:53;9.75;9.75;5.00
26185;PMS7003;20067;48.764;9.176;2023-04-15T11:48:30;7.25;7.25;3.00
26185;PMS7003;20067;48.764;9.176;2023-04-15T11:51:04;9.50;9.00;3.50
26185;PMS7003;20067;48.764;9.176;2023-04-15T11:53:43;10.00;10.00;5.50
26185;PMS7003;20067;48.764;9.176;2023-04-15T11:56:21;12.00;10.00;5.50
26185;PMS7003;20067;48.764;9.176;2023-04-15T11:58:48;10.00;10.00;4.75
26185;PMS7003;20067;48.764;9.176;2023-04-15T12:01:17;13.00;10.00;5.50
26185;PMS7003;20067;48.764;9.176;2023-04-15T12:03:46;9.00;9.00;4.00
26185;PMS7003;20067;48.764;9.176;2023-04-15T12:11:20;10.00;10.00;6.00
26185;PMS7003;20067;48.764;9.176;2023-04-15T12:13:54;13.00;11.00;5.00
26185;PMS7003;20067;48.764;9.176;2023-04-15T12:16:31;10.75;10.75;5.00
26185;PMS7003;20067;48.764;9.176;2023-04-15T12:18:59;10.50;9.50;5.00
26185;PMS7003;20067;48.764;9.176;2023-04-15T12:21:35;12.25;11.50;6.00
26185;PMS7003;20067;48.764;9.176;2023-04-15T12:24:03;12.25;12.25;8.00
26185;PMS7003;20067;48.764;9.176;2023-04-15T12:26:34;12.25;9.25;5.50
26185;PMS7003;20067;48.764;9.176;2023-04-15T12:29:06;9.50;8.75;5.00
26185;PMS7003;20067;48.764;9.176;2023-04-15T12:31:35;11.25;10.25;5.25
26185;PMS7003;20067;48.764;9.176;2023-04-15T12:34:02;11.50;9.25;5.50
26185;PMS7003;20067;48.764;9.176;2023-04-15T12:36:31;9.75;9.50;5.25
26185;PMS7003;20067;48.764;9.176;2023-04-15T12:39:01;9.50;9.00;5.00
26185;PMS7003;20067;48.764;9.176;2023-04-15T12:41:28;8.00;8.00;3.50
26185;PMS7003;20067;48.764;9.176;2023-04-15T12:43:54;11.25;11.00;5.00
26185;PMS7003;20067;48.764;9.176;2023-04-15T12:46:19;11.50;10.50;4.25
26185;PMS7003;20067;48.764;9.176;2023-04-15T12:48:45;9.00;9.00;4.00
26185;PMS7003;20067;48.764;9.176;2023-04-15T12:51:11;10.75;10.00;4.25
26185;PMS7003;20067;48.764;9.176;2023-04-15T12:53:37;9.00;9.00;4.00
26185;PMS7003;20067;48.764;9.176;2023-04-15T12:56:03;8.50;8.50;4.00
26185;PMS7003;20067;48.764;9.176;2023-04-15T12:58:29;10.75;10.75;5.00
26185;PMS7003;20067;48.764;9.176;2023-04-15T13:00:54;10.75;9.75;4.00
26185;PMS7003;20067;48.764;9.176;2023-04-15T13:03:21;10.00;10.00;4.00
26185;PMS7003;20067;48.764;9.176;2023-04-15T13:05:46;11.00;11.00;5.00
26185;PMS7003;20067;48.764;9.176;2023-04-15T13:08:12;10.50;10.50;4.25
26185;PMS7003;20067;48.764;9.176;2023-04-15T13:10:38;11.00;11.00;5.00
26185;PMS7003;20067;48.764;9.176;2023-04-15T13:13:03;9.00;9.00;4.00
26185;PMS7003;20067;48.764;9.176;2023-04-15T13:15:29;10.75;8.50;3.50
26185;PMS7003;20067;48.764;9.176;2023-04-15T13:17:55;10.00;8.00;4.00
26185;PMS7003;20067;48.764;9.176;2023-04-15T13:20:21;7.00;7.00;2.00
26185;PMS7003;20067;48.764;9.176;2023-04-15T13:22:46;10.00;8.00;2.00
26185;PMS7003;20067;48.764;9.176;2023-04-15T13:25:12;8.50;8.00;4.00
26185;PMS7003;20067;48.764;9.176;2023-04-15T13:27:38;7.00;7.00;3.50
26185;PMS7003;20067;48.764;9.176;2023-04-15T13:30:04;6.75;6.75;2.50
26185;PMS7003;20067;48.764;9.176;2023-04-15T13:32:31;8.50;8.50;4.00
26185;PMS7003;20067;48.764;9.176;2023-04-15T13:34:57;8.75;8.00;4.00
26185;PMS7003;20067;48.764;9.176;2023-04-15T13:37:26;9.00;9.00;4.00
26185;PMS7003;20067;48.764;9.176;2023-04-15T13:39:52;7.50;7.00;2.00
26185;PMS7003;20067;48.764;9.176;2023-04-15T13:42:18;9.00;8.00;2.00
26185;PMS7003;20067;48.764;9.176;2023-04-15T13:44:45;8.00;7.00;2.00
26185;PMS7003;20067;48.764;9.176;2023-04-15T13:47:10;8.75;8.00;3.50
26185;PMS7003;20067;48.764;9.176;2023-04-15T13:49:37;5.00;5.00;1.50
26185;PMS7003;20067;48.764;9.176;2023-04-15T13:52:02;10.50;6.25;1.75
26185;PMS7003;20067;48.764;9.176;2023-04-15T13:54:28;7.00;7.00;2.50
26185;PMS7003;20067;48.764;9.176;2023-04-15T13:56:54;8.00;7.75;1.50
26185;PMS7003;20067;48.764;9.176;2023-04-15T13:59:21;4.75;4.75;1.00
26185;PMS7003;20067;48.764;9.176;2023-04-15T14:01:47;5.50;4.75;1.00
26185;PMS7003;20067;48.764;9.176;2023-04-15T14:04:12;7.25;7.00;1.00
26185;PMS7003;20067;48.764;9.176;2023-04-15T14:06:38;5.00;4.50;1.00
26185;PMS7003;20067;48.764;9.176;2023-04-15T14:09:03;5.00;5.00;1.00
26185;PMS7003;20067;48.764;9.176;2023-04-15T14:11:29;4.00;4.00;0.25
26185;PMS7003;20067;48.764;9.176;2023-04-15T14:13:55;7.25;6.00;1.00
26185;PMS7003;20067;48.764;9.176;2023-04-15T14:16:20;5.00;4.75;1.00
26185;PMS7003;20067;48.764;9.176;2023-04-15T14:18:46;5.50;5.00;1.00